sensor_id;sensor_type;location;lat;lon;timestamp;P1;durP1;ratioP1;P2;durP2;ratioP2
28551;SDS011;15752;49.560;8.708;2023-05-10T00:00:32;0.40;;;0.38;;
28551;SDS011;15752;49.560;8.708;2023-05-10T00:03:00;0.40;;;0.40;;
28551;SDS011;15752;49.560;8.708;2023-05-10T00:05:30;3.00;;;0.40;;
28551;SDS011;15752;49.560;8.708;2023-05-10T00:07:59;0.35;;;0.35;;
28551;SDS011;15752;49.560;8.708;2023-05-10T00:10:27;2.25;;;0.52;;
28551;SDS011;15752;49.560;8.708;2023-05-10T00:12:57;0.47;;;0.47;;
28551;SDS011;15752;49.560;8.708;2023-05-10T00:15:25;0.75;;;0.60;;
28551;SDS011;15752;49.560;8.708;2023-05-10T00:17:54;1.30;;;0.85;;
28551;SDS011;15752;49.560;8.708;2023-05-10T00:20:22;1.55;;;1.02;;
28551;SDS011;15752;49.560;8.708;2023-05-10T00:22:50;0.70;;;0.70;;
28551;SDS011;15752;49.560;8.708;2023-05-10T00:25:19;0.55;;;0.55;;
28551;SDS011;15752;49.560;8.708;2023-05-10T00:27:48;0.85;;;0.75;;
28551;SDS011;15752;49.560;8.708;2023-05-10T00:30:18;0.80;;;0.80;;
28551;SDS011;15752;49.560;8.708;2023-05-10T00:32:47;1.02;;;0.85;;
28551;SDS011;15752;49.560;8.708;2023-05-10T00:35:16;0.95;;;0.80;;
28551;SDS011;15752;49.560;8.708;2023-05-10T00:37:44;1.55;;;0.68;;
28551;SDS011;15752;49.560;8.708;2023-05-10T00:40:13;2.40;;;0.85;;
28551;SDS011;15752;49.560;8.708;2023-05-10T00:42:47;0.80;;;0.73;;
28551;SDS011;15752;49.560;8.708;2023-05-10T00:45:17;1.90;;;1.00;;
28551;SDS011;15752;49.560;8.708;2023-05-10T00:47:46;0.70;;;0.70;;
28551;SDS011;15752;49.560;8.708;2023-05-10T00:50:14;1.23;;;1.10;;
28551;SDS011;15752;49.560;8.708;2023-05-10T00:52:43;0.90;;;0.90;;
28551;SDS011;15752;49.560;8.708;2023-05-10T00:55:12;1.30;;;1.20;;
28551;SDS011;15752;49.560;8.708;2023-05-10T00:57:40;0.73;;;0.70;;
28551;SDS011;15752;49.560;8.708;2023-05-10T01:00:10;0.80;;;0.80;;
28551;SDS011;15752;49.560;8.708;2023-05-10T01:02:45;1.30;;;0.90;;
28551;SDS011;15752;49.560;8.708;2023-05-10T01:05:16;1.00;;;0.90;;
28551;SDS011;15752;49.560;8.708;2023-05-10T01:07:44;0.70;;;0.70;;
28551;SDS011;15752;49.560;8.708;2023-05-10T01:10:13;1.23;;;0.85;;
28551;SDS011;15752;49.560;8.708;2023-05-10T01:12:43;0.70;;;0.70;;
28551;SDS011;15752;49.560;8.708;2023-05-10T01:15:14;0.90;;;0.82;;
28551;SDS011;15752;49.560;8.708;2023-05-10T01:17:46;1.30;;;1.13;;
28551;SDS011;15752;49.560;8.708;2023-05-10T01:20:16;2.00;;;0.73;;
28551;SDS011;15752;49.560;8.708;2023-05-10T01:28:53;0.85;;;0.82;;
28551;SDS011;15752;49.560;8.708;2023-05-10T01:31:56;1.17;;;0.80;;
28551;SDS011;15752;49.560;8.708;2023-05-10T01:34:44;0.98;;;0.80;;
28551;SDS011;15752;49.560;8.708;2023-05-10T01:37:23;1.10;;;1.00;;
28551;SDS011;15752;49.560;8.708;2023-05-10T01:40:00;1.90;;;0.70;;
28551;SDS011;15752;49.560;8.708;2023-05-10T01:42:39;0.80;;;0.80;;
28551;SDS011;15752;49.560;8.708;2023-05-10T01:45:16;1.33;;;0.80;;
28551;SDS011;15752;49.560;8.708;2023-05-10T01:47:52;0.80;;;0.73;;
28551;SDS011;15752;49.560;8.708;2023-05-10T01:50:32;0.73;;;0.73;;
28551;SDS011;15752;49.560;8.708;2023-05-10T01:53:02;0.90;;;0.90;;
28551;SDS011;15752;49.560;8.708;2023-05-10T01:55:35;1.35;;;1.13;;
28551;SDS011;15752;49.560;8.708;2023-05-10T01:58:13;0.75;;;0.73;;
28551;SDS011;15752;49.560;8.708;2023-05-10T02:00:44;0.85;;;0.85;;
28551;SDS011;15752;49.560;8.708;2023-05-10T02:03:16;0.95;;;0.95;;
28551;SDS011;15752;49.560;8.708;2023-05-10T02:05:48;0.93;;;0.73;;
28551;SDS011;15752;49.560;8.708;2023-05-10T02:08:20;0.75;;;0.75;;
28551;SDS011;15752;49.560;8.708;2023-05-10T02:10:50;1.20;;;0.93;;
28551;SDS011;15752;49.560;8.708;2023-05-10T02:13:22;0.90;;;0.80;;
28551;SDS011;15752;49.560;8.708;2023-05-10T02:15:52;1.30;;;0.65;;
28551;SDS011;15752;49.560;8.708;2023-05-10T02:18:23;1.27;;;0.70;;
28551;SDS011;15752;49.560;8.708;2023-05-10T02:20:54;0.70;;;0.70;;
28551;SDS011;15752;49.560;8.708;2023-05-10T02:23:24;1.05;;;0.50;;
28551;SDS011;15752;49.560;8.708;2023-05-10T02:25:54;0.60;;;0.60;;
28551;SDS011;15752;49.560;8.708;2023-05-10T02:28:24;0.77;;;0.73;;
28551;SDS011;15752;49.560;8.708;2023-05-10T02:30:54;0.60;;;0.60;;
28551;SDS011;15752;49.560;8.708;2023-05-10T02:33:25;0.60;;;0.60;;
28551;SDS011;15752;49.560;8.708;2023-05-10T02:35:54;0.80;;;0.80;;
28551;SDS011;15752;49.560;8.708;2023-05-10T02:38:23;1.63;;;0.63;;
28551;SDS011;15752;49.560;8.708;2023-05-10T02:40:53;0.80;;;0.80;;
28551;SDS011;15752;49.560;8.708;2023-05-10T02:43:23;2.30;;;0.95;;
28551;SDS011;15752;49.560;8.708;2023-05-10T02:45:53;2.40;;;0.70;;
28551;SDS011;15752;49.560;8.708;2023-05-10T02:48:21;1.13;;;0.63;;
28551;SDS011;15752;49.560;8.708;2023-05-10T02:50:52;2.13;;;0.60;;
28551;SDS011;15752;49.560;8.708;2023-05-10T02:53:23;0.50;;;0.50;;
28551;SDS011;15752;49.560;8.708;2023-05-10T02:55:58;0.77;;;0.70;;
28551;SDS011;15752;49.560;8.708;2023-05-10T02:58:33;1.25;;;0.50;;
28551;SDS011;15752;49.560;8.708;2023-05-10T03:01:02;0.95;;;0.70;;
28551;SDS011;15752;49.560;8.708;2023-05-10T03:03:30;0.60;;;0.60;;
28551;SDS011;15752;49.560;8.708;2023-05-10T03:06:00;0.70;;;0.70;;
28551;SDS011;15752;49.560;8.708;2023-05-10T03:08:29;0.80;;;0.80;;
28551;SDS011;15752;49.560;8.708;2023-05-10T03:11:01;0.80;;;0.75;;
28551;SDS011;15752;49.560;8.708;2023-05-10T03:13:48;1.20;;;0.75;;
28551;SDS011;15752;49.560;8.708;2023-05-10T03:16:27;0.83;;;0.77;;
28551;SDS011;15752;49.560;8.708;2023-05-10T03:19:05;0.63;;;0.63;;
28551;SDS011;15752;49.560;8.708;2023-05-10T03:21:41;0.77;;;0.70;;
28551;SDS011;15752;49.560;8.708;2023-05-10T03:24:18;0.60;;;0.60;;
28551;SDS011;15752;49.560;8.708;2023-05-10T03:26:50;1.75;;;0.50;;
28551;SDS011;15752;49.560;8.708;2023-05-10T03:29:21;1.42;;;0.60;;
28551;SDS011;15752;49.560;8.708;2023-05-10T03:31:51;1.20;;;1.00;;
28551;SDS011;15752;49.560;8.708;2023-05-10T03:34:23;0.65;;;0.65;;
28551;SDS011;15752;49.560;8.708;2023-05-10T03:36:53;0.73;;;0.68;;
28551;SDS011;15752;49.560;8.708;2023-05-10T03:39:23;0.93;;;0.73;;
28551;SDS011;15752;49.560;8.708;2023-05-10T03:41:56;1.23;;;0.90;;
28551;SDS011;15752;49.560;8.708;2023-05-10T03:44:25;1.75;;;0.85;;
28551;SDS011;15752;49.560;8.708;2023-05-10T03:46:53;0.65;;;0.65;;
28551;SDS011;15752;49.560;8.708;2023-05-10T03:49:23;0.82;;;0.82;;
28551;SDS011;15752;49.560;8.708;2023-05-10T03:51:53;1.65;;;1.13;;
28551;SDS011;15752;49.560;8.708;2023-05-10T03:54:22;0.82;;;0.80;;
28551;SDS011;15752;49.560;8.708;2023-05-10T03:56:50;1.13;;;1.02;;
28551;SDS011;15752;49.560;8.708;2023-05-10T03:59:20;2.80;;;0.80;;
28551;SDS011;15752;49.560;8.708;2023-05-10T04:01:50;2.20;;;1.17;;
28551;SDS011;15752;49.560;8.708;2023-05-10T04:04:18;3.22;;;1.08;;
28551;SDS011;15752;49.560;8.708;2023-05-10T04:06:49;1.90;;;1.13;;
28551;SDS011;15752;49.560;8.708;2023-05-10T04:09:19;4.85;;;1.25;;
28551;SDS011;15752;49.560;8.708;2023-05-10T04:11:47;1.05;;;1.00;;
28551;SDS011;15752;49.560;8.708;2023-05-10T04:14:16;1.00;;;0.90;;
28551;SDS011;15752;49.560;8.708;2023-05-10T04:16:44;1.20;;;1.10;;
28551;SDS011;15752;49.560;8.708;2023-05-10T04:19:13;1.05;;;0.95;;
28551;SDS011;15752;49.560;8.708;2023-05-10T04:21:41;1.10;;;1.00;;
28551;SDS011;15752;49.560;8.708;2023-05-10T04:24:09;1.48;;;1.10;;
28551;SDS011;15752;49.560;8.708;2023-05-10T04:26:40;1.30;;;1.17;;
28551;SDS011;15752;49.560;8.708;2023-05-10T04:29:08;3.10;;;0.98;;
28551;SDS011;15752;49.560;8.708;2023-05-10T04:31:37;2.00;;;1.20;;
28551;SDS011;15752;49.560;8.708;2023-05-10T04:34:05;1.15;;;1.05;;
28551;SDS011;15752;49.560;8.708;2023-05-10T04:36:33;1.23;;;1.10;;
28551;SDS011;15752;49.560;8.708;2023-05-10T04:39:03;7.50;;;1.10;;
28551;SDS011;15752;49.560;8.708;2023-05-10T04:41:31;2.85;;;1.35;;
28551;SDS011;15752;49.560;8.708;2023-05-10T04:44:01;1.13;;;1.00;;
28551;SDS011;15752;49.560;8.708;2023-05-10T04:46:30;1.20;;;1.10;;
28551;SDS011;15752;49.560;8.708;2023-05-10T04:48:58;0.90;;;0.90;;
28551;SDS011;15752;49.560;8.708;2023-05-10T04:51:26;2.10;;;0.95;;
28551;SDS011;15752;49.560;8.708;2023-05-10T04:53:55;2.40;;;0.95;;
28551;SDS011;15752;49.560;8.708;2023-05-10T04:56:32;3.05;;;1.38;;
28551;SDS011;15752;49.560;8.708;2023-05-10T04:59:02;1.63;;;1.23;;
28551;SDS011;15752;49.560;8.708;2023-05-10T05:01:30;1.13;;;1.02;;
28551;SDS011;15752;49.560;8.708;2023-05-10T05:03:58;0.80;;;0.80;;
28551;SDS011;15752;49.560;8.708;2023-05-10T05:06:27;1.80;;;1.00;;
28551;SDS011;15752;49.560;8.708;2023-05-10T05:08:56;1.02;;;0.90;;
28551;SDS011;15752;49.560;8.708;2023-05-10T05:11:24;1.90;;;1.20;;
28551;SDS011;15752;49.560;8.708;2023-05-10T05:13:53;1.05;;;0.95;;
28551;SDS011;15752;49.560;8.708;2023-05-10T05:16:22;1.20;;;1.10;;
28551;SDS011;15752;49.560;8.708;2023-05-10T05:18:51;1.73;;;1.00;;
28551;SDS011;15752;49.560;8.708;2023-05-10T05:21:20;1.67;;;1.10;;
28551;SDS011;15752;49.560;8.708;2023-05-10T05:23:48;4.75;;;0.98;;
28551;SDS011;15752;49.560;8.708;2023-05-10T05:26:17;1.98;;;1.00;;
28551;SDS011;15752;49.560;8.708;2023-05-10T05:28:45;1.23;;;1.10;;
28551;SDS011;15752;49.560;8.708;2023-05-10T05:31:15;1.90;;;1.03;;
28551;SDS011;15752;49.560;8.708;2023-05-10T05:33:45;1.42;;;0.95;;
28551;SDS011;15752;49.560;8.708;2023-05-10T05:36:13;2.58;;;1.10;;
28551;SDS011;15752;49.560;8.708;2023-05-10T05:38:42;1.15;;;1.10;;
28551;SDS011;15752;49.560;8.708;2023-05-10T05:41:10;3.53;;;1.25;;
28551;SDS011;15752;49.560;8.708;2023-05-10T05:43:38;4.05;;;0.98;;
28551;SDS011;15752;49.560;8.708;2023-05-10T05:46:07;2.20;;;1.17;;
28551;SDS011;15752;49.560;8.708;2023-05-10T05:48:35;1.33;;;1.08;;
28551;SDS011;15752;49.560;8.708;2023-05-10T05:51:05;1.35;;;1.00;;
28551;SDS011;15752;49.560;8.708;2023-05-10T05:53:34;3.40;;;1.20;;
28551;SDS011;15752;49.560;8.708;2023-05-10T05:56:02;1.00;;;0.95;;
28551;SDS011;15752;49.560;8.708;2023-05-10T05:58:31;1.40;;;1.10;;
28551;SDS011;15752;49.560;8.708;2023-05-10T06:01:00;3.33;;;1.10;;
28551;SDS011;15752;49.560;8.708;2023-05-10T06:03:28;2.25;;;1.27;;
28551;SDS011;15752;49.560;8.708;2023-05-10T06:05:57;1.77;;;1.17;;
28551;SDS011;15752;49.560;8.708;2023-05-10T06:08:27;4.95;;;0.93;;
28551;SDS011;15752;49.560;8.708;2023-05-10T06:10:55;1.52;;;1.13;;
28551;SDS011;15752;49.560;8.708;2023-05-10T06:13:23;1.20;;;1.00;;
28551;SDS011;15752;49.560;8.708;2023-05-10T06:15:55;1.48;;;1.10;;
28551;SDS011;15752;49.560;8.708;2023-05-10T06:18:23;1.35;;;1.25;;
28551;SDS011;15752;49.560;8.708;2023-05-10T06:20:52;1.97;;;1.20;;
28551;SDS011;15752;49.560;8.708;2023-05-10T06:23:20;1.30;;;1.20;;
28551;SDS011;15752;49.560;8.708;2023-05-10T06:25:50;1.55;;;1.10;;
28551;SDS011;15752;49.560;8.708;2023-05-10T06:28:19;2.50;;;1.35;;
28551;SDS011;15752;49.560;8.708;2023-05-10T06:30:47;1.45;;;1.30;;
28551;SDS011;15752;49.560;8.708;2023-05-10T06:33:16;1.52;;;1.42;;
28551;SDS011;15752;49.560;8.708;2023-05-10T06:35:44;2.55;;;1.20;;
28551;SDS011;15752;49.560;8.708;2023-05-10T06:38:12;1.35;;;1.25;;
28551;SDS011;15752;49.560;8.708;2023-05-10T06:40:41;2.92;;;1.30;;
28551;SDS011;15752;49.560;8.708;2023-05-10T06:43:11;1.25;;;1.15;;
28551;SDS011;15752;49.560;8.708;2023-05-10T06:45:39;1.57;;;1.27;;
28551;SDS011;15752;49.560;8.708;2023-05-10T06:48:08;3.28;;;1.40;;
28551;SDS011;15752;49.560;8.708;2023-05-10T06:50:37;2.60;;;1.50;;
28551;SDS011;15752;49.560;8.708;2023-05-10T06:53:05;1.90;;;1.38;;
28551;SDS011;15752;49.560;8.708;2023-05-10T06:55:34;1.20;;;1.10;;
28551;SDS011;15752;49.560;8.708;2023-05-10T06:58:02;1.00;;;0.90;;
28551;SDS011;15752;49.560;8.708;2023-05-10T07:00:32;2.03;;;1.10;;
28551;SDS011;15752;49.560;8.708;2023-05-10T07:03:01;1.80;;;1.33;;
28551;SDS011;15752;49.560;8.708;2023-05-10T07:05:29;1.25;;;1.15;;
28551;SDS011;15752;49.560;8.708;2023-05-10T07:07:57;1.30;;;1.20;;
28551;SDS011;15752;49.560;8.708;2023-05-10T07:10:26;1.15;;;1.13;;
28551;SDS011;15752;49.560;8.708;2023-05-10T07:12:54;4.10;;;1.42;;
28551;SDS011;15752;49.560;8.708;2023-05-10T07:15:23;1.55;;;1.45;;
28551;SDS011;15752;49.560;8.708;2023-05-10T07:17:53;2.97;;;1.42;;
28551;SDS011;15752;49.560;8.708;2023-05-10T07:20:22;1.70;;;1.60;;
28551;SDS011;15752;49.560;8.708;2023-05-10T07:22:50;1.30;;;1.20;;
28551;SDS011;15752;49.560;8.708;2023-05-10T07:25:19;2.07;;;1.50;;
28551;SDS011;15752;49.560;8.708;2023-05-10T07:27:47;2.03;;;1.35;;
28551;SDS011;15752;49.560;8.708;2023-05-10T07:30:15;1.55;;;1.45;;
28551;SDS011;15752;49.560;8.708;2023-05-10T07:32:45;1.55;;;1.45;;
28551;SDS011;15752;49.560;8.708;2023-05-10T07:35:15;1.35;;;1.23;;
28551;SDS011;15752;49.560;8.708;2023-05-10T07:37:44;1.65;;;1.27;;
28551;SDS011;15752;49.560;8.708;2023-05-10T07:40:12;1.30;;;1.20;;
28551;SDS011;15752;49.560;8.708;2023-05-10T07:42:41;3.30;;;1.48;;
28551;SDS011;15752;49.560;8.708;2023-05-10T07:45:10;1.30;;;1.17;;
28551;SDS011;15752;49.560;8.708;2023-05-10T07:47:38;1.88;;;1.48;;
28551;SDS011;15752;49.560;8.708;2023-05-10T07:50:07;1.60;;;1.50;;
28551;SDS011;15752;49.560;8.708;2023-05-10T07:52:37;2.55;;;1.20;;
28551;SDS011;15752;49.560;8.708;2023-05-10T07:55:06;1.60;;;1.50;;
28551;SDS011;15752;49.560;8.708;2023-05-10T07:57:37;1.50;;;1.35;;
28551;SDS011;15752;49.560;8.708;2023-05-10T08:00:06;1.17;;;1.08;;
28551;SDS011;15752;49.560;8.708;2023-05-10T08:02:39;2.03;;;1.50;;
28551;SDS011;15752;49.560;8.708;2023-05-10T08:05:08;1.55;;;1.25;;
28551;SDS011;15752;49.560;8.708;2023-05-10T08:07:38;2.47;;;1.48;;
28551;SDS011;15752;49.560;8.708;2023-05-10T08:10:07;1.50;;;1.40;;
28551;SDS011;15752;49.560;8.708;2023-05-10T08:12:37;1.52;;;1.30;;
28551;SDS011;15752;49.560;8.708;2023-05-10T08:15:06;1.60;;;1.38;;
28551;SDS011;15752;49.560;8.708;2023-05-10T08:17:36;2.95;;;1.25;;
28551;SDS011;15752;49.560;8.708;2023-05-10T08:20:05;5.28;;;1.60;;
28551;SDS011;15752;49.560;8.708;2023-05-10T08:22:34;1.90;;;1.60;;
28551;SDS011;15752;49.560;8.708;2023-05-10T08:25:05;3.90;;;1.40;;
28551;SDS011;15752;49.560;8.708;2023-05-10T08:27:35;1.25;;;1.15;;
28551;SDS011;15752;49.560;8.708;2023-05-10T08:30:03;2.10;;;1.25;;
28551;SDS011;15752;49.560;8.708;2023-05-10T08:32:33;1.90;;;1.33;;
28551;SDS011;15752;49.560;8.708;2023-05-10T08:35:04;2.13;;;1.55;;
28551;SDS011;15752;49.560;8.708;2023-05-10T08:37:33;2.95;;;1.50;;
28551;SDS011;15752;49.560;8.708;2023-05-10T08:40:02;1.67;;;1.17;;
28551;SDS011;15752;49.560;8.708;2023-05-10T08:42:34;1.75;;;1.33;;
28551;SDS011;15752;49.560;8.708;2023-05-10T08:45:05;2.20;;;1.08;;
28551;SDS011;15752;49.560;8.708;2023-05-10T08:47:35;1.20;;;1.10;;
28551;SDS011;15752;49.560;8.708;2023-05-10T08:50:06;1.23;;;1.13;;
28551;SDS011;15752;49.560;8.708;2023-05-10T08:52:35;1.60;;;1.13;;
28551;SDS011;15752;49.560;8.708;2023-05-10T08:55:09;1.30;;;1.17;;
28551;SDS011;15752;49.560;8.708;2023-05-10T08:57:38;1.33;;;1.20;;
28551;SDS011;15752;49.560;8.708;2023-05-10T09:00:07;4.35;;;1.30;;
28551;SDS011;15752;49.560;8.708;2023-05-10T09:02:37;2.03;;;1.63;;
28551;SDS011;15752;49.560;8.708;2023-05-10T09:05:06;1.38;;;1.25;;
28551;SDS011;15752;49.560;8.708;2023-05-10T09:07:37;3.63;;;1.38;;
28551;SDS011;15752;49.560;8.708;2023-05-10T09:10:06;1.40;;;1.10;;
28551;SDS011;15752;49.560;8.708;2023-05-10T09:12:37;1.27;;;1.10;;
28551;SDS011;15752;49.560;8.708;2023-05-10T09:15:07;1.58;;;1.13;;
28551;SDS011;15752;49.560;8.708;2023-05-10T09:17:37;1.52;;;1.40;;
28551;SDS011;15752;49.560;8.708;2023-05-10T09:20:07;2.33;;;1.10;;
28551;SDS011;15752;49.560;8.708;2023-05-10T09:22:36;1.27;;;1.17;;
28551;SDS011;15752;49.560;8.708;2023-05-10T09:25:06;1.83;;;1.13;;
28551;SDS011;15752;49.560;8.708;2023-05-10T09:27:38;0.95;;;0.95;;
28551;SDS011;15752;49.560;8.708;2023-05-10T09:30:08;1.00;;;0.90;;
28551;SDS011;15752;49.560;8.708;2023-05-10T09:32:38;1.25;;;1.10;;
28551;SDS011;15752;49.560;8.708;2023-05-10T09:35:08;0.95;;;0.80;;
28551;SDS011;15752;49.560;8.708;2023-05-10T09:37:38;1.75;;;1.35;;
28551;SDS011;15752;49.560;8.708;2023-05-10T09:40:12;6.13;;;1.25;;
28551;SDS011;15752;49.560;8.708;2023-05-10T09:42:43;2.72;;;1.20;;
28551;SDS011;15752;49.560;8.708;2023-05-10T09:45:19;4.43;;;1.70;;
28551;SDS011;15752;49.560;8.708;2023-05-10T09:47:49;1.85;;;1.10;;
28551;SDS011;15752;49.560;8.708;2023-05-10T09:50:18;1.83;;;1.30;;
28551;SDS011;15752;49.560;8.708;2023-05-10T09:52:48;3.75;;;1.17;;
28551;SDS011;15752;49.560;8.708;2023-05-10T09:55:21;1.98;;;1.23;;
28551;SDS011;15752;49.560;8.708;2023-05-10T09:57:58;2.22;;;1.60;;
28551;SDS011;15752;49.560;8.708;2023-05-10T10:00:28;2.25;;;1.58;;
28551;SDS011;15752;49.560;8.708;2023-05-10T10:03:02;1.40;;;1.30;;
28551;SDS011;15752;49.560;8.708;2023-05-10T10:05:32;2.90;;;1.50;;
28551;SDS011;15752;49.560;8.708;2023-05-10T10:08:03;2.42;;;1.40;;
28551;SDS011;15752;49.560;8.708;2023-05-10T10:10:34;3.92;;;1.60;;
28551;SDS011;15752;49.560;8.708;2023-05-10T10:13:02;2.30;;;1.40;;
28551;SDS011;15752;49.560;8.708;2023-05-10T10:15:31;1.30;;;1.20;;
28551;SDS011;15752;49.560;8.708;2023-05-10T10:18:01;4.00;;;1.52;;
28551;SDS011;15752;49.560;8.708;2023-05-10T10:20:31;2.00;;;1.55;;
28551;SDS011;15752;49.560;8.708;2023-05-10T10:23:00;4.20;;;1.63;;
28551;SDS011;15752;49.560;8.708;2023-05-10T10:25:28;6.30;;;1.40;;
28551;SDS011;15752;49.560;8.708;2023-05-10T10:28:02;3.10;;;1.45;;
28551;SDS011;15752;49.560;8.708;2023-05-10T10:30:48;2.53;;;1.20;;
28551;SDS011;15752;49.560;8.708;2023-05-10T10:36:22;4.32;;;1.10;;
28551;SDS011;15752;49.560;8.708;2023-05-10T10:39:00;0.85;;;0.80;;
28551;SDS011;15752;49.560;8.708;2023-05-10T10:41:31;1.45;;;0.82;;
28551;SDS011;15752;49.560;8.708;2023-05-10T10:47:05;4.60;;;1.10;;
28551;SDS011;15752;49.560;8.708;2023-05-10T10:49:42;4.55;;;1.23;;
28551;SDS011;15752;49.560;8.708;2023-05-10T10:52:18;1.13;;;1.02;;
28551;SDS011;15752;49.560;8.708;2023-05-10T10:54:53;2.80;;;1.17;;
28551;SDS011;15752;49.560;8.708;2023-05-10T10:57:28;1.73;;;1.30;;
28551;SDS011;15752;49.560;8.708;2023-05-10T11:00:20;1.85;;;1.30;;
28551;SDS011;15752;49.560;8.708;2023-05-10T11:02:56;1.90;;;1.48;;
28551;SDS011;15752;49.560;8.708;2023-05-10T11:05:37;1.98;;;1.17;;
28551;SDS011;15752;49.560;8.708;2023-05-10T11:08:09;2.90;;;1.55;;
28551;SDS011;15752;49.560;8.708;2023-05-10T11:10:40;1.48;;;1.23;;
28551;SDS011;15752;49.560;8.708;2023-05-10T11:13:31;1.63;;;1.52;;
28551;SDS011;15752;49.560;8.708;2023-05-10T11:16:15;3.83;;;1.60;;
28551;SDS011;15752;49.560;8.708;2023-05-10T11:18:51;3.45;;;1.70;;
28551;SDS011;15752;49.560;8.708;2023-05-10T11:21:25;2.85;;;1.40;;
28551;SDS011;15752;49.560;8.708;2023-05-10T11:23:54;3.63;;;1.65;;
28551;SDS011;15752;49.560;8.708;2023-05-10T11:26:24;4.20;;;1.73;;
28551;SDS011;15752;49.560;8.708;2023-05-10T11:28:57;1.80;;;1.67;;
28551;SDS011;15752;49.560;8.708;2023-05-10T11:31:28;3.50;;;2.00;;
28551;SDS011;15752;49.560;8.708;2023-05-10T11:33:58;2.75;;;1.70;;
28551;SDS011;15752;49.560;8.708;2023-05-10T11:36:28;2.10;;;1.90;;
28551;SDS011;15752;49.560;8.708;2023-05-10T11:39:00;1.55;;;1.45;;
28551;SDS011;15752;49.560;8.708;2023-05-10T11:41:29;3.72;;;1.80;;
28551;SDS011;15752;49.560;8.708;2023-05-10T11:43:58;1.95;;;1.85;;
28551;SDS011;15752;49.560;8.708;2023-05-10T11:46:28;2.15;;;1.95;;
28551;SDS011;15752;49.560;8.708;2023-05-10T11:48:57;1.70;;;1.60;;
28551;SDS011;15752;49.560;8.708;2023-05-10T11:51:32;4.05;;;2.45;;
28551;SDS011;15752;49.560;8.708;2023-05-10T11:54:05;3.05;;;1.95;;
28551;SDS011;15752;49.560;8.708;2023-05-10T11:56:36;2.13;;;1.92;;
28551;SDS011;15752;49.560;8.708;2023-05-10T11:59:13;2.58;;;1.83;;
28551;SDS011;15752;49.560;8.708;2023-05-10T12:01:43;1.80;;;1.70;;
28551;SDS011;15752;49.560;8.708;2023-05-10T12:04:12;1.70;;;1.60;;
28551;SDS011;15752;49.560;8.708;2023-05-10T12:06:41;1.50;;;1.40;;
28551;SDS011;15752;49.560;8.708;2023-05-10T12:09:10;3.25;;;1.33;;
28551;SDS011;15752;49.560;8.708;2023-05-10T12:11:39;2.10;;;1.30;;
28551;SDS011;15752;49.560;8.708;2023-05-10T12:14:10;2.30;;;1.45;;
28551;SDS011;15752;49.560;8.708;2023-05-10T12:16:38;1.70;;;1.20;;
28551;SDS011;15752;49.560;8.708;2023-05-10T12:19:09;1.75;;;1.15;;
28551;SDS011;15752;49.560;8.708;2023-05-10T12:21:37;1.17;;;0.80;;
28551;SDS011;15752;49.560;8.708;2023-05-10T12:24:07;2.92;;;1.70;;
28551;SDS011;15752;49.560;8.708;2023-05-10T12:26:36;3.47;;;1.10;;
28551;SDS011;15752;49.560;8.708;2023-05-10T12:29:12;1.20;;;0.70;;
28551;SDS011;15752;49.560;8.708;2023-05-10T12:31:54;0.98;;;0.70;;
28551;SDS011;15752;49.560;8.708;2023-05-10T12:34:26;2.15;;;0.77;;
28551;SDS011;15752;49.560;8.708;2023-05-10T12:36:58;2.50;;;0.93;;
28551;SDS011;15752;49.560;8.708;2023-05-10T12:39:37;2.97;;;0.80;;
28551;SDS011;15752;49.560;8.708;2023-05-10T12:42:08;1.58;;;0.80;;
28551;SDS011;15752;49.560;8.708;2023-05-10T12:44:38;1.63;;;0.70;;
28551;SDS011;15752;49.560;8.708;2023-05-10T12:47:06;1.92;;;0.90;;
28551;SDS011;15752;49.560;8.708;2023-05-10T12:49:36;1.10;;;0.80;;
28551;SDS011;15752;49.560;8.708;2023-05-10T12:52:05;1.08;;;0.65;;
28551;SDS011;15752;49.560;8.708;2023-05-10T12:54:33;5.45;;;1.05;;
28551;SDS011;15752;49.560;8.708;2023-05-10T12:57:02;3.50;;;0.82;;
28551;SDS011;15752;49.560;8.708;2023-05-10T12:59:30;1.38;;;0.70;;
28551;SDS011;15752;49.560;8.708;2023-05-10T13:02:01;2.53;;;0.90;;
28551;SDS011;15752;49.560;8.708;2023-05-10T13:04:30;1.85;;;0.70;;
28551;SDS011;15752;49.560;8.708;2023-05-10T13:07:00;0.98;;;0.63;;
28551;SDS011;15752;49.560;8.708;2023-05-10T13:09:29;2.70;;;0.60;;
28551;SDS011;15752;49.560;8.708;2023-05-10T13:11:57;1.27;;;0.90;;
28551;SDS011;15752;49.560;8.708;2023-05-10T13:14:26;1.50;;;0.73;;
28551;SDS011;15752;49.560;8.708;2023-05-10T13:16:55;2.78;;;0.93;;
28551;SDS011;15752;49.560;8.708;2023-05-10T13:19:23;1.90;;;0.95;;
28551;SDS011;15752;49.560;8.708;2023-05-10T13:21:52;2.15;;;0.80;;
28551;SDS011;15752;49.560;8.708;2023-05-10T13:24:21;1.23;;;0.70;;
28551;SDS011;15752;49.560;8.708;2023-05-10T13:26:50;0.85;;;0.82;;
28551;SDS011;15752;49.560;8.708;2023-05-10T13:29:18;1.63;;;0.80;;
28551;SDS011;15752;49.560;8.708;2023-05-10T13:31:48;2.58;;;0.90;;
28551;SDS011;15752;49.560;8.708;2023-05-10T13:34:17;2.13;;;0.80;;
28551;SDS011;15752;49.560;8.708;2023-05-10T13:36:47;1.58;;;0.88;;
28551;SDS011;15752;49.560;8.708;2023-05-10T13:39:15;1.67;;;0.90;;
28551;SDS011;15752;49.560;8.708;2023-05-10T13:41:45;1.33;;;0.90;;
28551;SDS011;15752;49.560;8.708;2023-05-10T13:44:14;2.17;;;0.95;;
28551;SDS011;15752;49.560;8.708;2023-05-10T13:46:43;1.52;;;0.90;;
28551;SDS011;15752;49.560;8.708;2023-05-10T13:49:11;3.45;;;1.13;;
28551;SDS011;15752;49.560;8.708;2023-05-10T13:51:40;2.42;;;1.00;;
28551;SDS011;15752;49.560;8.708;2023-05-10T13:54:10;3.03;;;1.00;;
28551;SDS011;15752;49.560;8.708;2023-05-10T13:56:39;5.38;;;0.88;;
28551;SDS011;15752;49.560;8.708;2023-05-10T13:59:11;1.45;;;1.05;;
28551;SDS011;15752;49.560;8.708;2023-05-10T14:01:40;1.73;;;0.60;;
28551;SDS011;15752;49.560;8.708;2023-05-10T14:04:10;1.75;;;0.68;;
28551;SDS011;15752;49.560;8.708;2023-05-10T14:06:39;1.13;;;0.82;;
28551;SDS011;15752;49.560;8.708;2023-05-10T14:09:07;1.13;;;0.50;;
28551;SDS011;15752;49.560;8.708;2023-05-10T14:11:36;4.60;;;0.70;;
28551;SDS011;15752;49.560;8.708;2023-05-10T14:14:08;1.67;;;0.95;;
28551;SDS011;15752;49.560;8.708;2023-05-10T14:16:38;0.95;;;0.88;;
28551;SDS011;15752;49.560;8.708;2023-05-10T14:19:09;1.23;;;0.75;;
28551;SDS011;15752;49.560;8.708;2023-05-10T14:21:38;1.50;;;0.75;;
28551;SDS011;15752;49.560;8.708;2023-05-10T14:24:06;0.60;;;0.60;;
28551;SDS011;15752;49.560;8.708;2023-05-10T14:26:36;1.85;;;0.65;;
28551;SDS011;15752;49.560;8.708;2023-05-10T14:29:05;1.05;;;0.57;;
28551;SDS011;15752;49.560;8.708;2023-05-10T14:31:38;1.23;;;1.05;;
28551;SDS011;15752;49.560;8.708;2023-05-10T14:34:07;1.27;;;0.75;;
28551;SDS011;15752;49.560;8.708;2023-05-10T14:36:36;3.17;;;0.77;;
28551;SDS011;15752;49.560;8.708;2023-05-10T14:39:04;1.95;;;0.63;;
28551;SDS011;15752;49.560;8.708;2023-05-10T14:41:33;2.08;;;0.60;;
28551;SDS011;15752;49.560;8.708;2023-05-10T14:44:02;1.65;;;0.80;;
28551;SDS011;15752;49.560;8.708;2023-05-10T14:46:30;0.85;;;0.50;;
28551;SDS011;15752;49.560;8.708;2023-05-10T14:49:02;1.38;;;0.60;;
28551;SDS011;15752;49.560;8.708;2023-05-10T14:51:30;1.05;;;0.60;;
28551;SDS011;15752;49.560;8.708;2023-05-10T14:54:02;3.15;;;0.95;;
28551;SDS011;15752;49.560;8.708;2023-05-10T14:56:33;0.70;;;0.60;;
28551;SDS011;15752;49.560;8.708;2023-05-10T14:59:03;1.02;;;0.70;;
28551;SDS011;15752;49.560;8.708;2023-05-10T15:01:32;1.30;;;0.60;;
28551;SDS011;15752;49.560;8.708;2023-05-10T15:04:05;1.55;;;0.70;;
28551;SDS011;15752;49.560;8.708;2023-05-10T15:06:34;2.22;;;0.60;;
28551;SDS011;15752;49.560;8.708;2023-05-10T15:09:03;0.57;;;0.47;;
28551;SDS011;15752;49.560;8.708;2023-05-10T15:11:31;1.33;;;0.65;;
28551;SDS011;15752;49.560;8.708;2023-05-10T15:14:00;1.98;;;0.55;;
28551;SDS011;15752;49.560;8.708;2023-05-10T15:16:29;1.65;;;0.60;;
28551;SDS011;15752;49.560;8.708;2023-05-10T15:19:01;1.55;;;0.57;;